Battle Ground, Indiana
Current Conditions -  °F | °C
As of 6:01 PM on Thursday 27 Nov 2014 (Local Time) from KLAF Reporting Station
Light Snow Light Snow  
Wind Chill: 17°   Ceiling: 2400
Heat Index: 25°   Visibility: 4mi
Dew Point: 21°   Wind: 7mph
Humidity: 85%   Direction: 310°NW
Pressure: 30.39"   Gusts: NA
Location:  40.51°N, 86.84°W
Report Text: KLAF 272301Z AUTO 31006KT 4SM -SN BR FEW019 BKN024 OVC040 M04/M06 A3039 RMK AO2 P0000 T10391061 TSNO
Loading
Personal Weather Stations






























Interactive Weather Map New forecast layout! Learn more

10-Day Weather Forecast

Advertisements
Track Severe Weather on mobile